Time;durP1;ratioP1;P1;durP2;ratioP2;P2;SDS_P1;SDS_P2;PMS_P1;PMS_P2;Temp;Humidity;BMP_temperature;BMP_pressure;BME280_temperature;BME280_humidity;BME280_pressure;Samples;Min_cycle;Max_cycle;Signal;HPM_P1;HPM_P2
2022/05/26 00:01:06;;;;;;;13.32;5.65;;;;;;;;;;4995220;28;20069;-80
2022/05/26 00:03:41;;;;;;;8.85;4.55;;;;;;;;;;5010758;28;20080;-81
2022/05/26 00:06:09;;;;;;;6.10;4.30;;;;;;;;;;5011458;28;20124;-80
2022/05/26 00:08:37;;;;;;;10.85;4.20;;;;;;;;;;4993531;28;20133;-80
2022/05/26 00:11:06;;;;;;;7.32;4.13;;;;;;;;;;4993350;28;20058;-80
2022/05/26 00:13:34;;;;;;;6.07;4.22;;;;;;;;;;5010502;28;20069;-81
2022/05/26 00:16:02;;;;;;;7.40;4.40;;;;;;;;;;5011139;28;20050;-81
2022/05/26 00:18:29;;;;;;;8.90;4.00;;;;;;;;;;5010925;28;20548;-80
2022/05/26 00:20:56;;;;;;;4.43;3.45;;;;;;;;;;4992881;28;20088;-80
2022/05/26 00:23:26;;;;;;;4.57;4.03;;;;;;;;;;5010605;28;20128;-79
2022/05/26 00:25:53;;;;;;;9.98;4.03;;;;;;;;;;5011138;28;20081;-79
2022/05/26 00:28:20;;;;;;;6.53;3.70;;;;;;;;;;4998047;28;20084;-80
2022/05/26 00:30:48;;;;;;;12.13;4.93;;;;;;;;;;5010569;28;20104;-80
2022/05/26 00:33:17;;;;;;;5.20;3.50;;;;;;;;;;5010665;28;20053;-80
2022/05/26 00:35:44;;;;;;;12.20;3.90;;;;;;;;;;5011119;28;20050;-80
2022/05/26 00:38:13;;;;;;;8.40;3.90;;;;;;;;;;4993549;28;20089;-80
2022/05/26 00:40:41;;;;;;;7.38;3.50;;;;;;;;;;5011024;28;20088;-80
2022/05/26 00:43:09;;;;;;;4.85;3.60;;;;;;;;;;5010515;28;20105;-79
2022/05/26 00:45:37;;;;;;;5.03;3.70;;;;;;;;;;4992684;28;20056;-79
2022/05/26 00:48:09;;;;;;;7.50;3.90;;;;;;;;;;5010125;28;20100;-80
2022/05/26 00:50:43;;;;;;;4.70;3.20;;;;;;;;;;4986874;28;20153;-79
2022/05/26 00:53:14;;;;;;;5.78;3.33;;;;;;;;;;5010687;28;20443;-79
2022/05/26 00:55:46;;;;;;;9.02;3.38;;;;;;;;;;5009904;28;20550;-78
2022/05/26 00:58:17;;;;;;;8.02;3.72;;;;;;;;;;5009748;28;20522;-79
2022/05/26 01:00:44;;;;;;;8.00;3.88;;;;;;;;;;5010683;28;20054;-79
2022/05/26 01:03:29;;;;;;;5.38;3.55;;;;;;;;;;5001319;28;20136;-79
2022/05/26 01:06:03;;;;;;;3.95;2.97;;;;;;;;;;5010433;28;20092;-80
2022/05/26 01:08:43;;;;;;;4.97;3.13;;;;;;;;;;5007366;28;20141;-80
2022/05/26 01:11:10;;;;;;;7.03;3.30;;;;;;;;;;5010676;28;20077;-81
2022/05/26 01:13:43;;;;;;;7.30;3.42;;;;;;;;;;5010721;28;20084;-81
2022/05/26 01:16:22;;;;;;;5.78;3.30;;;;;;;;;;5011095;28;20061;-80
2022/05/26 01:19:11;;;;;;;4.30;2.83;;;;;;;;;;5010901;28;20054;-80
2022/05/26 01:21:50;;;;;;;7.88;3.40;;;;;;;;;;5010627;28;20450;-81
2022/05/26 01:24:33;;;;;;;5.40;3.30;;;;;;;;;;4992835;28;20084;-80
2022/05/26 01:27:14;;;;;;;6.22;3.47;;;;;;;;;;5009727;28;20107;-79
2022/05/26 01:30:00;;;;;;;5.72;3.35;;;;;;;;;;5002432;28;20084;-79
2022/05/26 01:32:32;;;;;;;6.97;3.88;;;;;;;;;;4989985;28;20081;-79
2022/05/26 01:35:12;;;;;;;6.57;3.60;;;;;;;;;;5004346;28;20140;-78
2022/05/26 01:37:50;;;;;;;5.68;3.50;;;;;;;;;;5004711;28;20084;-78
2022/05/26 01:40:34;;;;;;;6.43;3.40;;;;;;;;;;5012880;28;20050;-79
2022/05/26 01:43:11;;;;;;;9.10;3.72;;;;;;;;;;4997220;28;20140;-78
2022/05/26 01:45:57;;;;;;;10.50;4.03;;;;;;;;;;5014236;28;20566;-79
2022/05/26 01:48:31;;;;;;;8.40;4.32;;;;;;;;;;5014187;28;20046;-77
2022/05/26 01:51:01;;;;;;;10.05;3.70;;;;;;;;;;4996773;28;20089;-78
2022/05/26 01:53:37;;;;;;;6.22;3.70;;;;;;;;;;5014531;28;20133;-78
2022/05/26 01:56:09;;;;;;;8.00;4.00;;;;;;;;;;5013665;28;20089;-78
2022/05/26 01:58:39;;;;;;;12.38;4.35;;;;;;;;;;5013524;28;20501;-78
2022/05/26 02:01:08;;;;;;;6.80;3.65;;;;;;;;;;4996736;28;20140;-78
2022/05/26 02:03:37;;;;;;;13.02;4.20;;;;;;;;;;5013896;28;20841;-78
2022/05/26 02:06:19;;;;;;;12.45;4.25;;;;;;;;;;5014654;28;20045;-78
2022/05/26 02:08:50;;;;;;;12.90;3.88;;;;;;;;;;5016080;28;20077;-79
2022/05/26 02:11:18;;;;;;;10.75;4.30;;;;;;;;;;5011460;28;20050;-78
2022/05/26 02:13:52;;;;;;;6.38;4.03;;;;;;;;;;5015160;28;20108;-78
2022/05/26 02:16:28;;;;;;;10.27;4.68;;;;;;;;;;5015027;28;20101;-78
2022/05/26 02:19:08;;;;;;;7.15;4.07;;;;;;;;;;5014362;28;20050;-79
2022/05/26 02:21:44;;;;;;;6.00;3.80;;;;;;;;;;5015313;28;20088;-78
2022/05/26 02:24:24;;;;;;;7.38;3.95;;;;;;;;;;5016013;28;20073;-78
2022/05/26 02:26:51;;;;;;;6.82;4.47;;;;;;;;;;5014366;28;20069;-79
2022/05/26 02:32:05;;;;;;;;;;;;;;;;;;5015244;28;20085;-79
2022/05/26 02:34:33;;;;;;;6.97;3.83;;;;;;;;;;5014246;28;19925;-79
2022/05/26 02:37:00;;;;;;;4.65;3.47;;;;;;;;;;5014679;28;20196;-79
2022/05/26 02:39:27;;;;;;;8.57;3.78;;;;;;;;;;5012017;28;20085;-79
2022/05/26 02:41:57;;;;;;;19.27;5.10;;;;;;;;;;4994830;28;20061;-81
2022/05/26 02:44:26;;;;;;;8.30;4.03;;;;;;;;;;5003340;28;20062;-80
2022/05/26 02:46:56;;;;;;;10.43;4.47;;;;;;;;;;5021195;28;20193;-79
2022/05/26 02:49:33;;;;;;;9.40;3.97;;;;;;;;;;5021671;28;20057;-80
2022/05/26 02:52:05;;;;;;;11.55;3.92;;;;;;;;;;5020132;28;20081;-80
2022/05/26 02:54:51;;;;;;;10.60;4.05;;;;;;;;;;4994886;28;20093;-80
2022/05/26 02:57:18;;;;;;;;;;;;;;;;;;4994203;28;20092;-80
2022/05/26 03:00:01;;;;;;;21.52;4.05;;;;;;;;;;5009263;28;19988;-80
2022/05/26 03:02:33;;;;;;;9.32;4.50;;;;;;;;;;4993876;28;20113;-80
2022/05/26 03:05:03;;;;;;;9.20;4.75;;;;;;;;;;4994178;28;20490;-80
2022/05/26 03:07:32;;;;;;;8.73;4.18;;;;;;;;;;4994707;28;20101;-80
2022/05/26 03:10:06;;;;;;;16.88;4.90;;;;;;;;;;4993596;28;20054;-80
2022/05/26 03:12:34;;;;;;;14.88;5.38;;;;;;;;;;4994051;28;20129;-79
2022/05/26 03:15:02;;;;;;;10.98;4.72;;;;;;;;;;4987936;28;20157;-79
2022/05/26 03:17:29;;;;;;;10.52;4.68;;;;;;;;;;4992952;28;20125;-79
2022/05/26 03:19:56;;;;;;;9.63;4.97;;;;;;;;;;4991624;28;20050;-79
2022/05/26 03:22:24;;;;;;;13.07;5.53;;;;;;;;;;4987303;28;20140;-79
2022/05/26 03:24:51;;;;;;;9.40;4.53;;;;;;;;;;4988054;28;20462;-79
2022/05/26 03:27:18;;;;;;;10.65;4.95;;;;;;;;;;4987439;28;20469;-79
2022/05/26 03:29:46;;;;;;;8.90;4.55;;;;;;;;;;5004719;28;20156;-79
2022/05/26 03:32:13;;;;;;;8.60;4.90;;;;;;;;;;5001036;28;20065;-79
2022/05/26 03:42:58;;;;;;;15.70;6.80;;;;;;;;;;4989136;28;20105;-79
2022/05/26 03:45:28;;;;;;;13.80;7.82;;;;;;;;;;4990799;28;20051;-79
2022/05/26 03:47:55;;;;;;;20.10;7.97;;;;;;;;;;4996261;28;20062;-79
2022/05/26 03:50:22;;;;;;;17.30;6.95;;;;;;;;;;4994246;28;20054;-80
2022/05/26 03:52:51;;;;;;;13.20;6.70;;;;;;;;;;4994803;28;20109;-80
2022/05/26 03:55:22;;;;;;;9.27;5.20;;;;;;;;;;5003514;28;20136;-79
2022/05/26 03:57:49;;;;;;;9.75;6.05;;;;;;;;;;5012264;28;20129;-79
2022/05/26 04:00:18;;;;;;;11.00;6.15;;;;;;;;;;5013384;28;20114;-79
2022/05/26 04:02:45;;;;;;;14.23;6.43;;;;;;;;;;5007440;28;20756;-80
2022/05/26 04:05:13;;;;;;;13.02;5.00;;;;;;;;;;5003164;28;20050;-80
2022/05/26 04:07:40;;;;;;;11.80;4.78;;;;;;;;;;4992795;28;20133;-79
2022/05/26 04:10:09;;;;;;;7.78;4.72;;;;;;;;;;5010038;28;20092;-79
2022/05/26 04:12:36;;;;;;;9.38;5.38;;;;;;;;;;5000446;28;20539;-79
2022/05/26 04:15:04;;;;;;;7.35;4.88;;;;;;;;;;4991643;28;20061;-79
2022/05/26 04:17:31;;;;;;;9.90;5.55;;;;;;;;;;5002667;28;20133;-78
2022/05/26 04:19:59;;;;;;;11.40;5.25;;;;;;;;;;5011701;28;20054;-78
2022/05/26 04:22:26;;;;;;;10.43;5.32;;;;;;;;;;5009233;28;20137;-79
2022/05/26 04:24:54;;;;;;;9.05;5.90;;;;;;;;;;5005966;28;20137;-79
2022/05/26 04:27:23;;;;;;;10.05;5.05;;;;;;;;;;4999826;28;20145;-79
2022/05/26 04:29:50;;;;;;;8.13;5.40;;;;;;;;;;4986383;28;20140;-79
2022/05/26 04:32:19;;;;;;;10.88;5.70;;;;;;;;;;4994724;28;20061;-79
2022/05/26 04:34:48;;;;;;;10.13;5.57;;;;;;;;;;5006564;28;20081;-79
2022/05/26 04:37:16;;;;;;;13.20;5.90;;;;;;;;;;5002620;28;20127;-78
2022/05/26 04:39:43;;;;;;;11.35;5.22;;;;;;;;;;5005900;28;20107;-79
2022/05/26 04:42:11;;;;;;;14.27;6.10;;;;;;;;;;5003242;28;20061;-79
2022/05/26 04:44:39;;;;;;;12.32;5.90;;;;;;;;;;4989880;28;20161;-79
2022/05/26 04:47:07;;;;;;;9.02;5.50;;;;;;;;;;4974220;28;20112;-80
2022/05/26 04:49:37;;;;;;;6.40;4.82;;;;;;;;;;4991149;28;20084;-79
2022/05/26 04:52:09;;;;;;;10.85;5.63;;;;;;;;;;4989379;28;20054;-79
2022/05/26 04:54:36;;;;;;;10.15;5.80;;;;;;;;;;4989474;28;20499;-79
2022/05/26 04:57:05;;;;;;;12.32;4.90;;;;;;;;;;4989422;28;20085;-79
2022/05/26 04:59:33;;;;;;;7.97;5.75;;;;;;;;;;4994739;28;20576;-79
2022/05/26 05:02:00;;;;;;;9.95;5.13;;;;;;;;;;5009905;28;20049;-79
2022/05/26 05:04:28;;;;;;;11.10;5.05;;;;;;;;;;5024787;28;20061;-79
2022/05/26 05:06:56;;;;;;;12.18;5.32;;;;;;;;;;5012075;28;20058;-78
2022/05/26 05:09:23;;;;;;;10.20;5.45;;;;;;;;;;5016777;28;20046;-78
2022/05/26 05:11:51;;;;;;;10.23;5.72;;;;;;;;;;5002680;28;20161;-78
2022/05/26 05:14:19;;;;;;;9.50;5.68;;;;;;;;;;5009477;28;20075;-78
2022/05/26 05:16:47;;;;;;;9.77;6.18;;;;;;;;;;5018265;28;20460;-78
2022/05/26 05:19:15;;;;;;;11.38;5.28;;;;;;;;;;5018375;28;20750;-78
2022/05/26 05:21:46;;;;;;;10.63;5.38;;;;;;;;;;5018614;28;20077;-78
2022/05/26 05:24:16;;;;;;;8.02;5.07;;;;;;;;;;5008241;28;20062;-78
2022/05/26 05:26:45;;;;;;;10.60;5.35;;;;;;;;;;5003249;28;20073;-78
2022/05/26 05:29:14;;;;;;;9.73;5.45;;;;;;;;;;5009723;28;20054;-78
2022/05/26 05:31:45;;;;;;;17.60;6.00;;;;;;;;;;5008097;28;20053;-79
2022/05/26 05:34:25;;;;;;;12.48;5.38;;;;;;;;;;5009348;28;20455;-78
2022/05/26 05:36:52;;;;;;;12.63;5.90;;;;;;;;;;4990599;28;20104;-79
2022/05/26 05:39:20;;;;;;;8.68;5.38;;;;;;;;;;4991043;28;20171;-79
2022/05/26 05:41:47;;;;;;;9.82;5.10;;;;;;;;;;5009703;28;20077;-79
2022/05/26 05:44:14;;;;;;;12.23;6.72;;;;;;;;;;5009940;28;20097;-79
2022/05/26 05:46:54;;;;;;;10.93;6.10;;;;;;;;;;4993012;28;20066;-79
2022/05/26 05:49:22;;;;;;;12.98;5.47;;;;;;;;;;5006189;28;20165;-79
2022/05/26 05:51:50;;;;;;;12.82;5.75;;;;;;;;;;5004398;28;20129;-80
2022/05/26 05:54:18;;;;;;;12.88;5.43;;;;;;;;;;4989359;28;20089;-79
2022/05/26 05:56:46;;;;;;;12.90;5.63;;;;;;;;;;4993891;28;20073;-79
2022/05/26 05:59:14;;;;;;;9.15;4.93;;;;;;;;;;4998801;28;20082;-80
2022/05/26 06:01:41;;;;;;;12.18;5.40;;;;;;;;;;5006099;28;20740;-79
2022/05/26 06:04:09;;;;;;;17.73;5.75;;;;;;;;;;5008243;28;20571;-78
2022/05/26 06:06:37;;;;;;;19.60;5.47;;;;;;;;;;5008638;28;20077;-78
2022/05/26 06:09:05;;;;;;;13.90;5.07;;;;;;;;;;5007691;28;20101;-78
2022/05/26 06:11:32;;;;;;;15.20;4.45;;;;;;;;;;4989658;28;20129;-78
2022/05/26 06:13:59;;;;;;;12.43;5.13;;;;;;;;;;4989333;28;20371;-78
2022/05/26 06:16:27;;;;;;;10.00;4.60;;;;;;;;;;5006714;28;20128;-78
2022/05/26 06:18:55;;;;;;;8.68;4.68;;;;;;;;;;5008452;28;20061;-78
2022/05/26 06:21:22;;;;;;;8.00;4.30;;;;;;;;;;5009624;28;20089;-78
2022/05/26 06:23:51;;;;;;;9.13;4.53;;;;;;;;;;5012394;28;20707;-78
2022/05/26 06:26:18;;;;;;;10.57;3.90;;;;;;;;;;5012138;28;20046;-77
2022/05/26 06:31:31;;;;;;;;;;;;;;;;;;5011560;28;20137;-78
2022/05/26 06:39:30;;;;;;;10.27;5.28;;;;;;;;;;5009590;28;20097;-77
2022/05/26 06:42:06;;;;;;;9.35;3.88;;;;;;;;;;4992468;28;20164;-78
2022/05/26 06:44:37;;;;;;;8.07;3.60;;;;;;;;;;5009978;28;20046;-78
2022/05/26 06:47:06;;;;;;;15.32;3.92;;;;;;;;;;4995971;28;20146;-78
2022/05/26 06:49:34;;;;;;;12.70;3.25;;;;;;;;;;5010342;28;20093;-77
2022/05/26 06:52:02;;;;;;;7.90;2.92;;;;;;;;;;5010311;28;20081;-77
2022/05/26 06:54:30;;;;;;;11.80;2.95;;;;;;;;;;5009921;28;20148;-78
2022/05/26 06:56:58;;;;;;;13.50;3.20;;;;;;;;;;5008386;28;20053;-78
2022/05/26 06:59:25;;;;;;;15.07;3.10;;;;;;;;;;4992052;28;20140;-77
2022/05/26 07:01:53;;;;;;;7.15;2.13;;;;;;;;;;5009107;28;20089;-78
2022/05/26 07:04:20;;;;;;;8.05;2.35;;;;;;;;;;5008868;28;20148;-78
2022/05/26 07:06:49;;;;;;;10.85;1.92;;;;;;;;;;5007757;28;20777;-78
2022/05/26 07:09:16;;;;;;;20.83;2.00;;;;;;;;;;5010242;28;20085;-79
2022/05/26 07:11:43;;;;;;;15.43;2.35;;;;;;;;;;5008955;28;20133;-78
2022/05/26 07:14:11;;;;;;;15.20;2.13;;;;;;;;;;5009147;28;20089;-78
2022/05/26 07:16:39;;;;;;;11.18;2.00;;;;;;;;;;4991887;28;20088;-78
2022/05/26 07:19:06;;;;;;;7.43;1.73;;;;;;;;;;4992607;28;20171;-79
2022/05/26 07:21:33;;;;;;;5.20;1.67;;;;;;;;;;5009256;28;20096;-78
2022/05/26 07:24:00;;;;;;;8.02;1.60;;;;;;;;;;4991561;28;20078;-78
2022/05/26 07:26:32;;;;;;;10.55;1.98;;;;;;;;;;5008302;28;20056;-78
2022/05/26 07:28:59;;;;;;;6.22;2.20;;;;;;;;;;5009548;28;20089;-78
2022/05/26 07:31:27;;;;;;;10.55;1.70;;;;;;;;;;4991226;28;20137;-78
2022/05/26 07:33:55;;;;;;;13.52;2.38;;;;;;;;;;5010303;28;20544;-79
2022/05/26 07:41:57;;;;;;;9.18;1.90;;;;;;;;;;5007676;28;20073;-78
2022/05/26 07:44:26;;;;;;;8.88;1.83;;;;;;;;;;5007892;28;20136;-79
2022/05/26 07:46:53;;;;;;;9.27;2.17;;;;;;;;;;5008198;28;20103;-79
2022/05/26 07:49:20;;;;;;;9.05;1.88;;;;;;;;;;5008731;28;20140;-78
2022/05/26 07:51:47;;;;;;;10.98;1.85;;;;;;;;;;5008476;28;20124;-79
2022/05/26 07:54:14;;;;;;;10.60;1.85;;;;;;;;;;5009752;28;20133;-79
2022/05/26 07:56:42;;;;;;;9.68;1.88;;;;;;;;;;5008320;28;20851;-79
2022/05/26 07:59:09;;;;;;;14.75;2.33;;;;;;;;;;5008290;28;20077;-79
2022/05/26 08:01:37;;;;;;;11.70;2.22;;;;;;;;;;5007189;28;20052;-79
2022/05/26 08:04:07;;;;;;;6.75;1.67;;;;;;;;;;5009424;28;20144;-79
2022/05/26 08:06:34;;;;;;;13.68;2.40;;;;;;;;;;5007459;28;20046;-78
2022/05/26 08:09:01;;;;;;;12.55;2.25;;;;;;;;;;5008990;28;20147;-78
2022/05/26 08:11:29;;;;;;;9.10;2.05;;;;;;;;;;5007975;28;20487;-78
2022/05/26 08:13:56;;;;;;;7.15;2.40;;;;;;;;;;5007999;28;20837;-78
2022/05/26 08:16:23;;;;;;;13.07;2.20;;;;;;;;;;5007649;28;20164;-81
2022/05/26 08:18:50;;;;;;;11.43;1.70;;;;;;;;;;5008569;28;20089;-80
2022/05/26 08:21:18;;;;;;;7.93;1.85;;;;;;;;;;5010388;28;20546;-81
2022/05/26 08:23:46;;;;;;;4.13;1.30;;;;;;;;;;5010519;28;20147;-81
2022/05/26 08:26:14;;;;;;;6.35;1.27;;;;;;;;;;4996943;28;20085;-82
2022/05/26 08:28:42;;;;;;;7.07;1.50;;;;;;;;;;5011095;28;20133;-83
2022/05/26 08:31:10;;;;;;;7.03;1.70;;;;;;;;;;5008506;28;20135;-79
2022/05/26 08:33:38;;;;;;;9.40;1.70;;;;;;;;;;4998853;28;20050;-81
2022/05/26 08:36:07;;;;;;;16.35;1.90;;;;;;;;;;5009467;28;20257;-82
2022/05/26 08:38:35;;;;;;;5.53;1.58;;;;;;;;;;5010036;28;20081;-82
2022/05/26 08:41:04;;;;;;;8.10;1.92;;;;;;;;;;5010054;28;20073;-82
2022/05/26 08:43:44;;;;;;;11.45;1.60;;;;;;;;;;5006267;28;20115;-79
2022/05/26 08:46:13;;;;;;;6.00;1.42;;;;;;;;;;5008922;28;20474;-81
2022/05/26 08:48:48;;;;;;;9.40;1.75;;;;;;;;;;4992511;28;20054;-81
2022/05/26 08:51:23;;;;;;;8.55;1.60;;;;;;;;;;4991757;28;20053;-80
2022/05/26 08:53:50;;;;;;;;;;;;;;;;;;5009189;28;20108;-80
2022/05/26 08:56:20;;;;;;;6.07;1.45;;;;;;;;;;5007868;28;19968;-80
2022/05/26 08:58:49;;;;;;;6.45;1.20;;;;;;;;;;5008745;28;20058;-82
2022/05/26 09:01:21;;;;;;;12.13;2.53;;;;;;;;;;4995637;28;20100;-81
2022/05/26 09:03:48;;;;;;;5.72;1.30;;;;;;;;;;4991497;28;20042;-81
2022/05/26 09:06:18;;;;;;;7.50;1.40;;;;;;;;;;4991758;28;20053;-82
2022/05/26 09:14:31;;;;;;;10.52;1.45;;;;;;;;;;5008388;28;20045;-79
2022/05/26 09:17:05;;;;;;;6.10;1.20;;;;;;;;;;5001486;28;20076;-78
2022/05/26 09:19:44;;;;;;;8.15;1.48;;;;;;;;;;5007537;28;20065;-79
2022/05/26 09:22:29;;;;;;;7.07;1.70;;;;;;;;;;5006857;28;20054;-79
2022/05/26 09:24:57;;;;;;;3.45;1.25;;;;;;;;;;5006658;28;20775;-78
2022/05/26 09:27:27;;;;;;;7.88;1.63;;;;;;;;;;5006600;28;20049;-79
2022/05/26 09:29:55;;;;;;;5.90;1.20;;;;;;;;;;5006675;28;20085;-78
2022/05/26 09:32:30;;;;;;;10.68;1.65;;;;;;;;;;5007395;28;20144;-81
2022/05/26 09:35:06;;;;;;;8.63;1.85;;;;;;;;;;5007263;28;20449;-80
2022/05/26 09:37:44;;;;;;;10.05;1.77;;;;;;;;;;5007166;28;20096;-80
2022/05/26 09:40:14;;;;;;;2.97;1.10;;;;;;;;;;5007042;28;20042;-80
2022/05/26 09:42:42;;;;;;;6.93;1.58;;;;;;;;;;5007908;28;20096;-80
2022/05/26 09:45:14;;;;;;;16.95;1.52;;;;;;;;;;5007453;28;20049;-79
2022/05/26 09:47:44;;;;;;;13.55;2.08;;;;;;;;;;5007457;28;20084;-78
2022/05/26 09:50:38;;;;;;;5.95;1.10;;;;;;;;;;5006040;28;20093;-77
2022/05/26 09:53:06;;;;;;;13.95;1.52;;;;;;;;;;5005798;28;20090;-77
2022/05/26 09:55:41;;;;;;;8.02;1.20;;;;;;;;;;5001655;28;20123;-79
2022/05/26 09:58:28;;;;;;;14.55;1.50;;;;;;;;;;5010584;28;20049;-78
2022/05/26 10:00:57;;;;;;;12.23;1.25;;;;;;;;;;5011192;28;20057;-79
2022/05/26 10:03:37;;;;;;;8.05;1.15;;;;;;;;;;5011775;28;20092;-80
2022/05/26 10:06:39;;;;;;;9.07;1.40;;;;;;;;;;5010015;28;20088;-79
2022/05/26 10:09:07;;;;;;;8.23;0.88;;;;;;;;;;4949577;28;20102;-78
2022/05/26 10:11:46;;;;;;;9.88;1.40;;;;;;;;;;4998342;28;20443;-77
2022/05/26 10:14:13;;;;;;;13.18;1.50;;;;;;;;;;4991706;28;20738;-77
2022/05/26 10:16:52;;;;;;;16.40;1.70;;;;;;;;;;4992485;28;20092;-78
2022/05/26 10:19:24;;;;;;;5.00;1.23;;;;;;;;;;4992091;28;20046;-77
2022/05/26 10:21:59;;;;;;;7.43;1.63;;;;;;;;;;5009469;28;20129;-78
2022/05/26 10:24:42;;;;;;;6.85;1.17;;;;;;;;;;5009599;28;20089;-77
2022/05/26 10:27:28;;;;;;;7.43;1.33;;;;;;;;;;5008932;28;20050;-78
2022/05/26 10:30:14;;;;;;;3.42;1.08;;;;;;;;;;5011454;28;20054;-78
2022/05/26 10:32:46;;;;;;;4.35;1.20;;;;;;;;;;5012533;28;20479;-78
2022/05/26 10:35:18;;;;;;;6.30;1.40;;;;;;;;;;5009247;28;20155;-77
2022/05/26 10:37:55;;;;;;;3.00;1.00;;;;;;;;;;5009918;28;20077;-78
2022/05/26 10:40:22;;;;;;;6.28;1.00;;;;;;;;;;4992702;28;20054;-79
2022/05/26 10:42:54;;;;;;;6.97;0.98;;;;;;;;;;5002270;28;20082;-79
2022/05/26 10:45:38;;;;;;;12.10;1.40;;;;;;;;;;4992710;28;20054;-77
2022/05/26 10:48:22;;;;;;;4.68;1.33;;;;;;;;;;5011033;28;20058;-78
2022/05/26 10:50:50;;;;;;;9.20;1.67;;;;;;;;;;5009701;28;20104;-77
2022/05/26 10:53:25;;;;;;;7.30;1.38;;;;;;;;;;5008331;28;20093;-76
2022/05/26 10:55:54;;;;;;;6.30;0.95;;;;;;;;;;5008150;28;20135;-76
2022/05/26 10:58:29;;;;;;;11.90;1.45;;;;;;;;;;5007657;28;20096;-76
2022/05/26 11:00:59;;;;;;;5.03;1.37;;;;;;;;;;5008479;28;20168;-79
2022/05/26 11:03:31;;;;;;;4.80;1.30;;;;;;;;;;4991998;28;20125;-78
2022/05/26 11:06:17;;;;;;;7.07;1.20;;;;;;;;;;5009374;28;20054;-78
2022/05/26 11:08:47;;;;;;;5.38;0.85;;;;;;;;;;5007875;28;20096;-78
2022/05/26 11:11:20;;;;;;;13.40;1.10;;;;;;;;;;4995957;28;20714;-77
2022/05/26 11:13:54;;;;;;;5.75;1.27;;;;;;;;;;5014370;28;20088;-78
2022/05/26 11:19:27;;;;;;;7.15;1.13;;;;;;;;;;5014916;28;20129;-77
2022/05/26 11:21:55;;;;;;;11.45;1.15;;;;;;;;;;5013339;28;20141;-77
2022/05/26 11:24:23;;;;;;;8.35;1.38;;;;;;;;;;5013965;28;20050;-78
2022/05/26 11:27:00;;;;;;;11.20;1.48;;;;;;;;;;5001678;28;20314;-79
2022/05/26 11:29:30;;;;;;;14.15;1.55;;;;;;;;;;5010855;28;20123;-77
2022/05/26 11:38:06;;;;;;;10.70;1.00;;;;;;;;;;5011539;28;20129;-77
2022/05/26 11:40:46;;;;;;;6.05;1.27;;;;;;;;;;5013082;28;20080;-79
2022/05/26 11:43:23;;;;;;;6.88;1.10;;;;;;;;;;5011148;28;20074;-79
2022/05/26 11:45:51;;;;;;;5.82;0.73;;;;;;;;;;5014377;28;20505;-80
2022/05/26 11:48:31;;;;;;;5.15;0.95;;;;;;;;;;5012284;28;20080;-80
2022/05/26 11:51:26;;;;;;;7.32;1.08;;;;;;;;;;4996270;28;20061;-79
2022/05/26 11:53:54;;;;;;;10.07;1.10;;;;;;;;;;4999108;28;20084;-78
2022/05/26 11:56:21;;;;;;;6.13;0.95;;;;;;;;;;5013533;28;20517;-78
2022/05/26 11:59:08;;;;;;;8.98;1.60;;;;;;;;;;5011055;28;20550;-79
2022/05/26 12:01:37;;;;;;;9.57;1.38;;;;;;;;;;4992661;28;20149;-78
2022/05/26 12:04:07;;;;;;;17.50;1.70;;;;;;;;;;5009488;28;20475;-79
2022/05/26 12:06:38;;;;;;;13.27;1.50;;;;;;;;;;5008887;28;20042;-76
2022/05/26 12:09:05;;;;;;;9.27;1.40;;;;;;;;;;5008899;28;20135;-77
2022/05/26 12:11:56;;;;;;;20.50;1.40;;;;;;;;;;5007987;28;20125;-79
2022/05/26 12:14:26;;;;;;;10.98;1.30;;;;;;;;;;4999893;28;20136;-77
2022/05/26 12:16:54;;;;;;;9.93;1.85;;;;;;;;;;5007777;28;20104;-78
2022/05/26 12:19:48;;;;;;;11.75;1.80;;;;;;;;;;5008264;28;20085;-78
2022/05/26 12:22:30;;;;;;;10.73;1.10;;;;;;;;;;5004541;28;20085;-79
2022/05/26 12:24:58;;;;;;;6.95;1.20;;;;;;;;;;5007838;28;20442;-79
2022/05/26 12:27:54;;;;;;;7.32;1.05;;;;;;;;;;5007011;28;20593;-79
2022/05/26 12:30:31;;;;;;;8.85;1.73;;;;;;;;;;4977375;28;20156;-78
2022/05/26 12:33:00;;;;;;;7.72;1.45;;;;;;;;;;5007218;28;20077;-78
2022/05/26 12:35:38;;;;;;;8.40;1.58;;;;;;;;;;4988932;28;20081;-78
2022/05/26 12:38:15;;;;;;;3.97;1.00;;;;;;;;;;5006599;28;20145;-78
2022/05/26 12:40:42;;;;;;;3.33;0.88;;;;;;;;;;4999915;28;20136;-78
2022/05/26 12:43:28;;;;;;;12.32;1.25;;;;;;;;;;5005227;28;20077;-78
2022/05/26 12:46:01;;;;;;;4.75;1.05;;;;;;;;;;5006278;28;20512;-78
2022/05/26 12:48:48;;;;;;;7.03;0.90;;;;;;;;;;4989265;28;20160;-78
2022/05/26 12:51:15;;;;;;;4.97;1.02;;;;;;;;;;5006030;28;20058;-78
2022/05/26 12:53:49;;;;;;;8.73;1.00;;;;;;;;;;5006771;28;20141;-78
2022/05/26 12:56:34;;;;;;;3.70;1.30;;;;;;;;;;4988451;28;20156;-78
2022/05/26 12:59:01;;;;;;;;;;;;;;;;;;5007225;28;20216;-78
2022/05/26 13:01:30;;;;;;;3.97;0.82;;;;;;;;;;5004576;28;19948;-77
2022/05/26 13:04:09;;;;;;;9.48;1.02;;;;;;;;;;5006598;28;20061;-78
2022/05/26 13:06:42;;;;;;;7.20;0.90;;;;;;;;;;5006058;28;20049;-78
2022/05/26 13:09:15;;;;;;;6.32;1.00;;;;;;;;;;4993863;28;20050;-77
2022/05/26 13:11:53;;;;;;;4.78;1.17;;;;;;;;;;5004684;28;20791;-78
2022/05/26 13:14:31;;;;;;;7.45;1.15;;;;;;;;;;5006372;28;20117;-78
2022/05/26 13:17:03;;;;;;;7.65;1.17;;;;;;;;;;5006503;28;20074;-79
2022/05/26 13:19:31;;;;;;;5.97;1.00;;;;;;;;;;5005914;28;20141;-78
2022/05/26 13:21:59;;;;;;;8.98;0.90;;;;;;;;;;4989227;28;20092;-78
2022/05/26 13:24:31;;;;;;;4.63;1.17;;;;;;;;;;4989984;28;20046;-78
2022/05/26 13:27:10;;;;;;;7.18;1.05;;;;;;;;;;5006154;28;20494;-77
2022/05/26 13:29:41;;;;;;;3.42;1.00;;;;;;;;;;4988620;28;20085;-78
2022/05/26 13:34:56;;;;;;;2.53;0.80;;;;;;;;;;5008164;28;20041;-78
2022/05/26 13:37:25;;;;;;;5.18;0.73;;;;;;;;;;5007734;28;20065;-77
2022/05/26 13:40:07;;;;;;;3.75;0.65;;;;;;;;;;5006045;28;20077;-78
2022/05/26 13:42:36;;;;;;;5.93;0.70;;;;;;;;;;5006776;28;20041;-78
2022/05/26 13:45:05;;;;;;;5.53;0.70;;;;;;;;;;5006851;28;20463;-79
2022/05/26 13:47:37;;;;;;;8.68;0.77;;;;;;;;;;5006717;28;20145;-79
2022/05/26 13:50:06;;;;;;;6.63;1.30;;;;;;;;;;4989920;28;20716;-78
2022/05/26 13:52:35;;;;;;;4.75;0.75;;;;;;;;;;5006131;28;20764;-77
2022/05/26 13:55:07;;;;;;;4.15;0.82;;;;;;;;;;5006657;28;20700;-78
2022/05/26 13:57:39;;;;;;;8.10;1.40;;;;;;;;;;5006636;28;20050;-78
2022/05/26 14:00:11;;;;;;;8.30;1.00;;;;;;;;;;5006854;28;20088;-78
2022/05/26 14:02:38;;;;;;;9.07;0.90;;;;;;;;;;5007022;28;20414;-78
2022/05/26 14:05:27;;;;;;;6.65;1.20;;;;;;;;;;5007223;28;20053;-79
2022/05/26 14:07:57;;;;;;;4.53;0.70;;;;;;;;;;4990179;28;20050;-78
2022/05/26 14:10:39;;;;;;;3.08;1.02;;;;;;;;;;5007010;28;20054;-78
2022/05/26 14:13:08;;;;;;;4.95;0.98;;;;;;;;;;5007060;28;20085;-78
2022/05/26 14:15:38;;;;;;;4.40;0.80;;;;;;;;;;4989203;28;20085;-78
2022/05/26 14:18:08;;;;;;;2.92;1.00;;;;;;;;;;4989352;28;20109;-78
2022/05/26 14:20:35;;;;;;;2.47;1.00;;;;;;;;;;4989387;28;20430;-78
2022/05/26 14:23:02;;;;;;;9.63;0.88;;;;;;;;;;5006900;28;20100;-78
2022/05/26 14:25:29;;;;;;;7.68;0.77;;;;;;;;;;5007680;28;20070;-78
2022/05/26 14:27:58;;;;;;;5.45;0.85;;;;;;;;;;4989623;28;20141;-78
2022/05/26 14:30:38;;;;;;;12.15;0.95;;;;;;;;;;5006953;28;20093;-79
2022/05/26 14:33:25;;;;;;;1.77;0.73;;;;;;;;;;5007476;28;20065;-79
2022/05/26 14:36:00;;;;;;;5.83;0.90;;;;;;;;;;5007190;28;20053;-78
2022/05/26 14:38:28;;;;;;;14.88;0.90;;;;;;;;;;5006723;28;20129;-78
2022/05/26 14:40:55;;;;;;;6.63;1.25;;;;;;;;;;4990262;28;20085;-78
2022/05/26 14:43:25;;;;;;;6.60;0.82;;;;;;;;;;5009741;28;20127;-79
2022/05/26 14:45:53;;;;;;;5.95;1.02;;;;;;;;;;5011275;28;20140;-78
2022/05/26 14:48:21;;;;;;;5.63;1.15;;;;;;;;;;5010271;28;20077;-78
2022/05/26 14:50:48;;;;;;;5.65;1.10;;;;;;;;;;4992683;28;20081;-78
2022/05/26 14:53:15;;;;;;;13.82;1.95;;;;;;;;;;5009778;28;20053;-78
2022/05/26 14:55:44;;;;;;;5.25;1.10;;;;;;;;;;5009877;28;20545;-79
2022/05/26 14:58:14;;;;;;;9.70;1.52;;;;;;;;;;5010119;28;20794;-79
2022/05/26 15:00:43;;;;;;;6.13;1.00;;;;;;;;;;5009170;28;20053;-78
2022/05/26 15:03:11;;;;;;;10.02;0.80;;;;;;;;;;5008941;28;20065;-78
2022/05/26 15:05:39;;;;;;;4.78;1.35;;;;;;;;;;5012445;28;20088;-79
2022/05/26 15:08:15;;;;;;;4.07;1.17;;;;;;;;;;5012066;28;20081;-78
2022/05/26 15:10:42;;;;;;;4.00;1.05;;;;;;;;;;5010380;28;20058;-78
2022/05/26 15:13:09;;;;;;;6.50;1.05;;;;;;;;;;5009943;28;20145;-77
2022/05/26 15:15:37;;;;;;;6.35;1.10;;;;;;;;;;5010431;28;20567;-78
2022/05/26 15:18:04;;;;;;;5.65;1.20;;;;;;;;;;4992231;28;20161;-78
2022/05/26 15:20:31;;;;;;;9.75;0.98;;;;;;;;;;5009819;28;20119;-79
2022/05/26 15:22:58;;;;;;;6.28;1.05;;;;;;;;;;5009765;28;20088;-78
2022/05/26 15:25:26;;;;;;;8.35;1.23;;;;;;;;;;4992420;28;20475;-78
2022/05/26 15:27:57;;;;;;;5.22;0.70;;;;;;;;;;5005562;28;20057;-79
2022/05/26 15:30:25;;;;;;;5.32;0.95;;;;;;;;;;5008953;28;20073;-79
2022/05/26 15:32:52;;;;;;;4.72;1.65;;;;;;;;;;5008860;28;20069;-79
2022/05/26 15:35:21;;;;;;;11.90;1.70;;;;;;;;;;4992256;28;20100;-79
2022/05/26 15:37:52;;;;;;;2.47;0.90;;;;;;;;;;5005929;28;20053;-78
2022/05/26 15:40:21;;;;;;;6.90;1.30;;;;;;;;;;5009777;28;20053;-78
2022/05/26 15:42:49;;;;;;;2.70;0.95;;;;;;;;;;5009751;28;20049;-79
2022/05/26 15:45:16;;;;;;;6.68;1.20;;;;;;;;;;4993045;28;20050;-78
2022/05/26 15:47:44;;;;;;;8.63;1.70;;;;;;;;;;5001775;28;20137;-78